createdAt,value
2022-11-14T00:01:05.445Z,30.0925
2022-11-14T00:16:07.364Z,29.9563
2022-11-14T00:31:09.340Z,30.3785
2022-11-14T00:46:11.296Z,30.8174
2022-11-14T01:01:13.282Z,30.3432
2022-11-14T01:16:15.273Z,30.4342
2022-11-14T01:31:18.162Z,28.7343
2022-11-14T01:46:20.070Z,29.8393
2022-11-14T02:01:21.997Z,29.7161
2022-11-14T02:16:24.007Z,27.8664
2022-11-14T02:31:25.879Z,28.6396
2022-11-14T02:46:27.721Z,29.3744
2022-11-14T03:01:29.633Z,29.8486
2022-11-14T03:16:31.584Z,29.4722
2022-11-14T03:31:33.469Z,30.1024
2022-11-14T03:46:35.344Z,30.2324
2022-11-14T04:01:37.178Z,30.3593
2022-11-14T04:16:39.030Z,29.4722
2022-11-14T04:31:40.887Z,28.1041
2022-11-14T04:46:42.750Z,29.0853
2022-11-14T05:01:44.681Z,28.5523
2022-11-14T05:16:46.618Z,27.7791
2022-11-14T05:31:48.493Z,27.3755
2022-11-14T05:46:50.338Z,28.2954
2022-11-14T06:01:52.240Z,28.3994
2022-11-14T06:16:54.138Z,28.4254
2022-11-14T06:31:55.950Z,27.6522
2022-11-14T06:46:57.790Z,27.62
2022-11-14T07:01:59.665Z,27.9512
2022-11-14T07:17:01.511Z,27.7203
2022-11-14T07:32:03.414Z,28.1103
2022-11-14T07:47:05.503Z,28.1623
2022-11-14T08:02:07.355Z,25.1333
2022-11-14T08:17:09.206Z,25.6595
2022-11-14T08:32:11.037Z,23.9887
2022-11-14T08:47:12.929Z,23.0942
2022-11-14T09:02:14.793Z,22.7983
2022-11-14T09:17:16.623Z,22.1935
2022-11-14T09:32:18.438Z,20.8316
2022-11-14T09:47:20.973Z,21.4036
2022-11-14T10:02:23.129Z,20.4156
2022-11-14T10:17:25.028Z,21.0619
2022-11-14T10:32:26.874Z,20.6298
2022-11-14T10:47:28.917Z,19.9179
2022-11-14T11:02:36.167Z,20.1711
2022-11-14T11:17:42.987Z,18.8742
2022-11-14T11:32:45.059Z,19.1899
2022-11-14T11:47:46.914Z,18.5102
2022-11-14T12:02:50.381Z,19.0822
2022-11-14T12:17:52.477Z,18.4811
2022-11-14T12:32:54.352Z,18.7182
2022-11-14T12:47:56.214Z,18.2632
2022-11-14T13:02:58.091Z,18.582
2022-11-14T13:18:00.016Z,18.0063
2022-11-14T13:33:01.923Z,18.7052
2022-11-14T13:48:03.758Z,18.0874
2022-11-14T14:03:05.676Z,18.8253
2022-11-14T14:18:07.480Z,18.1004
2022-11-14T14:33:09.352Z,20.0182
2022-11-14T14:48:11.174Z,17.8144
2022-11-14T15:03:13.004Z,19.4165
2022-11-14T15:18:14.865Z,17.4863
2022-11-14T15:33:16.778Z,18.6433
2022-11-14T15:48:18.613Z,18.4415
2022-11-14T16:03:20.448Z,19.0624
2022-11-14T16:18:22.286Z,17.7884
2022-11-14T16:33:24.146Z,18.9293
2022-11-14T16:48:25.982Z,17.4993
2022-11-14T17:03:28.083Z,19.4165
2022-11-14T17:18:34.126Z,17.3724
2022-11-14T17:33:40.077Z,21.2662
2022-11-14T17:48:41.928Z,20.9641
2022-11-14T18:03:43.798Z,21.2829
2022-11-14T18:18:45.648Z,21.7738
2022-11-14T18:33:47.521Z,21.5658
2022-11-14T18:48:49.374Z,22.222
2022-11-14T19:03:51.246Z,22.9085
2022-11-14T19:18:53.231Z,23.8476
2022-11-14T19:33:55.104Z,24.6604
2022-11-14T19:48:56.972Z,25.4175
2022-11-14T20:03:58.825Z,24.8492
2022-11-14T20:19:00.692Z,25.4472
2022-11-14T20:34:02.516Z,23.8024
2022-11-14T20:49:04.429Z,25.727
2022-11-14T21:04:06.330Z,26.0879
2022-11-14T21:19:08.216Z,27.2901
2022-11-14T21:34:10.053Z,27.1341
2022-11-14T21:49:11.936Z,26.8419
2022-11-14T22:04:13.786Z,27.0338
2022-11-14T22:19:15.826Z,27.3031
2022-11-14T22:34:17.688Z,26.7088
2022-11-14T22:49:21.232Z,27.2969
2022-11-14T23:04:23.287Z,27.1669
2022-11-14T23:19:25.088Z,27.144
2022-11-14T23:34:26.941Z,27.131
2022-11-14T23:49:28.803Z,26.8487
